Time;durP1;ratioP1;P1;durP2;ratioP2;P2;SDS_P1;SDS_P2;PMS_P1;PMS_P2;Temp;Humidity;BMP_temperature;BMP_pressure;BME280_temperature;BME280_humidity;BME280_pressure;Samples;Min_cycle;Max_cycle;Signal;HPM_P1;HPM_P2
2022/07/25 00:00:51;;;;;;;10.38;9.30;;;;;;;22.99;66.97;97879.25;5056363;28;20664;-69
2022/07/25 00:03:18;;;;;;;9.80;8.80;;;;;;;22.96;67.29;97877.13;5056345;28;20259;-71
2022/07/25 00:05:45;;;;;;;10.85;9.85;;;;;;;22.97;66.64;97867.09;5055869;28;20251;-71
2022/07/25 00:08:12;;;;;;;10.70;9.75;;;;;;;22.93;67.36;97860.69;5056140;28;20258;-71
2022/07/25 00:10:38;;;;;;;11.95;9.90;;;;;;;22.94;66.82;97863.09;5056132;28;20205;-71
2022/07/25 00:13:05;;;;;;;10.63;9.65;;;;;;;22.91;67.30;97860.97;5056091;28;20307;-71
2022/07/25 00:15:31;;;;;;;10.77;9.80;;;;;;;22.85;67.57;97866.78;5055703;28;20205;-71
2022/07/25 00:17:58;;;;;;;10.85;9.80;;;;;;;22.85;67.76;97869.50;5056025;28;20292;-71
2022/07/25 00:20:24;;;;;;;11.15;10.10;;;;;;;22.87;67.36;97861.88;5055948;28;20260;-71
2022/07/25 00:22:50;;;;;;;10.82;9.82;;;;;;;22.85;67.63;97864.91;5056795;28;20296;-71
2022/07/25 00:25:17;;;;;;;10.75;9.70;;;;;;;22.86;67.92;97860.25;5055849;28;20232;-71
2022/07/25 00:27:43;;;;;;;10.82;9.82;;;;;;;22.81;68.09;97863.06;5055543;28;20687;-71
2022/07/25 00:30:10;;;;;;;9.90;8.95;;;;;;;22.80;68.32;97864.19;5055441;28;20622;-71
2022/07/25 00:32:37;;;;;;;10.90;9.82;;;;;;;22.83;68.28;97860.88;5055833;28;20213;-71
2022/07/25 00:35:04;;;;;;;10.40;9.60;;;;;;;22.78;68.14;97859.06;5055734;28;20304;-71
2022/07/25 00:37:30;;;;;;;10.90;9.93;;;;;;;22.71;68.10;97860.56;5055383;28;20208;-71
2022/07/25 00:39:57;;;;;;;10.00;9.20;;;;;;;22.67;68.54;97862.28;5055276;28;20229;-71
2022/07/25 00:42:23;;;;;;;10.75;9.85;;;;;;;22.58;69.35;97864.91;5055305;28;20208;-71
2022/07/25 00:44:50;;;;;;;10.63;9.57;;;;;;;22.55;69.41;97862.78;5055495;28;20209;-71
2022/07/25 00:47:17;;;;;;;11.70;10.60;;;;;;;22.50;69.62;97862.06;5055512;28;20220;-71
2022/07/25 00:49:43;;;;;;;10.60;9.60;;;;;;;22.50;69.97;97862.88;5054984;28;20257;-71
2022/07/25 00:52:10;;;;;;;10.60;9.70;;;;;;;22.43;70.31;97864.34;5055432;28;20216;-72
2022/07/25 00:54:37;;;;;;;10.63;9.63;;;;;;;22.43;69.95;97864.34;5055041;28;20694;-71
2022/07/25 00:57:04;;;;;;;10.90;9.90;;;;;;;22.37;70.21;97865.53;5055008;28;20205;-71
2022/07/25 00:59:30;;;;;;;10.90;9.80;;;;;;;22.37;70.24;97860.09;5055068;28;20229;-71
2022/07/25 01:01:57;;;;;;;10.80;9.80;;;;;;;22.36;70.67;97858.50;5055459;28;20212;-71
2022/07/25 01:04:23;;;;;;;11.10;9.93;;;;;;;22.38;70.23;97859.03;5054875;28;20204;-71
2022/07/25 01:06:50;;;;;;;10.47;9.60;;;;;;;22.45;69.48;97857.56;5055062;28;20264;-71
2022/07/25 01:09:18;;;;;;;12.47;10.10;;;;;;;22.37;70.41;97854.69;5054738;28;20735;-71
2022/07/25 01:11:44;;;;;;;10.53;9.57;;;;;;;22.30;71.28;97855.06;5055012;28;20229;-71
2022/07/25 01:14:11;;;;;;;11.13;9.50;;;;;;;22.31;70.71;97856.69;5054956;28;20211;-71
2022/07/25 01:16:39;;;;;;;10.20;9.40;;;;;;;22.25;71.30;97852.47;5054926;28;20292;-71
2022/07/25 01:19:06;;;;;;;10.80;9.80;;;;;;;22.22;70.93;97860.38;5054222;28;20225;-71
2022/07/25 01:21:32;;;;;;;10.17;9.27;;;;;;;22.21;70.84;97851.44;5054497;28;20672;-71
2022/07/25 01:24:00;;;;;;;11.07;10.15;;;;;;;22.18;70.80;97849.34;5054808;28;20216;-71
2022/07/25 01:26:26;;;;;;;9.80;9.00;;;;;;;22.05;70.97;97855.53;5054690;28;20243;-71
2022/07/25 01:28:53;;;;;;;11.23;10.23;;;;;;;21.99;72.08;97850.50;5054331;28;20260;-71
2022/07/25 01:31:20;;;;;;;10.63;9.73;;;;;;;21.99;72.12;97840.50;5054884;28;20206;-71
2022/07/25 01:33:46;;;;;;;10.70;9.70;;;;;;;21.94;72.26;97837.06;5054309;28;20296;-71
2022/07/25 01:36:13;;;;;;;9.87;9.00;;;;;;;21.94;71.84;97831.66;5054572;28;20197;-71
2022/07/25 01:38:39;;;;;;;10.83;9.90;;;;;;;21.95;71.53;97839.47;5054155;28;20723;-71
2022/07/25 01:41:06;;;;;;;10.17;9.37;;;;;;;21.93;71.96;97838.94;5054489;28;20212;-71
2022/07/25 01:43:32;;;;;;;9.57;8.73;;;;;;;21.95;72.10;97833.25;5054433;28;20201;-71
2022/07/25 01:45:59;;;;;;;10.57;9.67;;;;;;;21.89;72.29;97837.16;5054198;28;20221;-71
2022/07/25 01:48:25;;;;;;;10.40;9.50;;;;;;;21.77;73.11;97826.78;5054201;28;20311;-71
2022/07/25 01:50:52;;;;;;;10.87;9.97;;;;;;;21.72;73.77;97829.56;5054008;28;20732;-71
2022/07/25 01:53:19;;;;;;;11.03;10.07;;;;;;;21.78;73.02;97827.56;5054199;28;20205;-71
2022/07/25 01:55:46;;;;;;;10.70;9.80;;;;;;;21.76;72.53;97832.50;5053858;28;20205;-71
2022/07/25 01:58:12;;;;;;;10.37;9.43;;;;;;;21.78;71.92;97824.88;5054487;28;20245;-71
2022/07/25 02:00:39;;;;;;;10.33;9.17;;;;;;;21.79;72.27;97818.38;5053951;28;20217;-71
2022/07/25 02:05:49;;;;;;;11.10;9.80;;;;;;;21.81;71.80;97821.56;5054077;28;20271;-71
2022/07/25 02:08:15;;;;;;;9.73;8.93;;;;;;;21.73;72.50;97817.66;5053636;28;20665;-71
2022/07/25 02:10:42;;;;;;;9.97;8.97;;;;;;;21.67;72.24;97820.69;5053634;28;20296;-71
2022/07/25 02:13:08;;;;;;;11.10;10.10;;;;;;;21.63;72.10;97809.66;5053600;28;20659;-71
2022/07/25 02:15:35;;;;;;;9.97;9.03;;;;;;;21.59;72.15;97807.84;5053524;28;20292;-71
2022/07/25 02:18:02;;;;;;;10.23;9.30;;;;;;;21.63;72.18;97811.56;5053492;28;20676;-71
2022/07/25 02:20:28;;;;;;;9.83;9.00;;;;;;;21.62;71.44;97812.66;5053403;28;20225;-71
2022/07/25 02:22:55;;;;;;;10.43;9.53;;;;;;;21.60;71.57;97804.03;5053784;28;20300;-71
2022/07/25 02:25:21;;;;;;;10.00;9.17;;;;;;;21.64;71.95;97799.63;5053673;28;20297;-71
2022/07/25 02:27:47;;;;;;;9.77;8.97;;;;;;;21.59;71.51;97805.13;5053698;28;20213;-71
2022/07/25 02:30:14;;;;;;;10.27;9.37;;;;;;;21.51;72.00;97803.09;5053203;28;20225;-71
2022/07/25 02:32:40;;;;;;;9.63;8.73;;;;;;;21.46;72.69;97808.56;5052820;28;20209;-71
2022/07/25 02:35:07;;;;;;;9.47;8.67;;;;;;;21.52;72.42;97789.28;5053611;28;20213;-71
2022/07/25 02:37:34;;;;;;;9.60;8.57;;;;;;;21.52;71.56;97793.91;5053209;28;20661;-71
2022/07/25 02:40:00;;;;;;;9.90;9.10;;;;;;;21.54;71.59;97788.97;5053483;28;20252;-71
2022/07/25 02:42:27;;;;;;;10.20;9.27;;;;;;;21.54;71.49;97786.28;5053542;28;20205;-71
2022/07/25 02:44:53;;;;;;;9.80;8.97;;;;;;;21.55;71.55;97796.00;5053460;28;20216;-71
2022/07/25 02:47:20;;;;;;;10.27;9.37;;;;;;;21.54;71.16;97786.28;5054228;28;20224;-71
2022/07/25 02:49:46;;;;;;;10.27;9.30;;;;;;;21.58;71.30;97782.69;5053073;28;20229;-71
2022/07/25 02:52:13;;;;;;;10.20;9.20;;;;;;;21.55;71.37;97787.88;5053088;28;20724;-71
2022/07/25 02:54:39;;;;;;;11.90;9.67;;;;;;;21.51;73.01;97787.66;5053347;28;20296;-71
2022/07/25 02:57:06;;;;;;;10.20;9.20;;;;;;;21.42;72.59;97786.72;5053345;28;20280;-71
2022/07/25 02:59:32;;;;;;;9.43;8.63;;;;;;;21.42;72.98;97791.31;5052909;28;20252;-71
2022/07/25 03:01:59;;;;;;;9.90;9.10;;;;;;;21.32;73.74;97791.50;5052862;28;20217;-71
2022/07/25 03:04:25;;;;;;;9.70;8.90;;;;;;;21.25;74.21;97780.25;5053230;28;20205;-71
2022/07/25 03:06:51;;;;;;;10.33;9.30;;;;;;;21.17;74.86;97789.03;5052801;28;20228;-71
2022/07/25 03:09:18;;;;;;;9.47;8.73;;;;;;;21.20;74.38;97791.16;5053084;28;20239;-71
2022/07/25 03:11:45;;;;;;;10.43;9.43;;;;;;;21.20;73.83;97791.16;5053155;28;20213;-71
2022/07/25 03:14:11;;;;;;;10.87;9.83;;;;;;;21.20;73.68;97785.75;5053121;28;20288;-71
2022/07/25 03:16:37;;;;;;;10.23;9.33;;;;;;;21.16;74.32;97787.44;5052827;28;20294;-71
2022/07/25 03:19:09;;;;;;;10.37;9.47;;;;;;;21.13;74.12;97783.41;5053035;28;20320;-71
2022/07/25 03:21:35;;;;;;;10.20;9.20;;;;;;;21.06;74.59;97779.44;5052791;28;20200;-71
2022/07/25 03:24:01;;;;;;;10.13;9.10;;;;;;;21.02;75.22;97776.53;5052896;28;20212;-71
2022/07/25 03:26:28;;;;;;;10.33;9.30;;;;;;;20.99;75.75;97776.31;5052810;28;20232;-71
2022/07/25 03:28:54;;;;;;;10.73;9.83;;;;;;;20.96;75.75;97777.69;5052804;28;20221;-71
2022/07/25 03:31:21;;;;;;;10.53;9.53;;;;;;;20.91;75.96;97768.84;5052526;28;20647;-71
2022/07/25 03:33:47;;;;;;;10.67;9.83;;;;;;;20.91;76.09;97771.56;5052771;28;20205;-71
2022/07/25 03:36:14;;;;;;;10.63;9.73;;;;;;;20.90;76.25;97762.66;5052808;28;20232;-71
2022/07/25 03:38:40;;;;;;;11.00;9.90;;;;;;;20.89;76.32;97765.63;5052619;28;20237;-71
2022/07/25 03:41:06;;;;;;;10.50;9.40;;;;;;;20.88;76.92;97750.47;5052278;28;20300;-71
2022/07/25 03:43:33;;;;;;;10.53;9.70;;;;;;;20.85;76.94;97751.09;5055239;28;20296;-71
2022/07/25 03:45:59;;;;;;;10.63;9.73;;;;;;;20.85;76.84;97749.16;5056275;28;20543;-71
2022/07/25 03:48:26;;;;;;;10.43;9.43;;;;;;;20.88;77.21;97750.47;5056334;28;20206;-71
2022/07/25 03:50:52;;;;;;;10.83;9.93;;;;;;;20.90;76.55;97751.00;5056143;28;20695;-71
2022/07/25 03:53:18;;;;;;;11.23;10.13;;;;;;;20.89;77.31;97741.28;5056386;28;20304;-71
2022/07/25 03:55:45;;;;;;;10.73;9.70;;;;;;;20.92;76.58;97740.72;5055797;28;20201;-71
2022/07/25 03:58:11;;;;;;;10.67;9.67;;;;;;;20.92;76.46;97751.53;5056215;28;20601;-71
2022/07/25 04:00:38;;;;;;;11.60;10.57;;;;;;;20.88;76.41;97745.88;5055559;28;20220;-71
2022/07/25 04:03:04;;;;;;;11.93;10.60;;;;;;;20.89;76.55;97739.38;5055869;28;20292;-71
2022/07/25 04:05:30;;;;;;;10.93;9.83;;;;;;;20.86;76.84;97739.97;5055741;28;20209;-71
2022/07/25 04:07:57;;;;;;;10.63;9.63;;;;;;;20.79;77.67;97736.81;5056053;28;20231;-71
2022/07/25 04:10:24;;;;;;;11.20;9.87;;;;;;;20.85;77.36;97738.34;5055563;28;20735;-71
2022/07/25 04:12:50;;;;;;;11.53;10.37;;;;;;;20.81;77.47;97731.13;5055645;28;20292;-71
2022/07/25 04:15:17;;;;;;;11.73;10.63;;;;;;;20.78;77.72;97739.81;5055532;28;20664;-71
2022/07/25 04:17:43;;;;;;;12.00;10.47;;;;;;;20.81;77.87;97737.34;5056331;28;20238;-71
2022/07/25 04:20:10;;;;;;;11.80;10.70;;;;;;;20.81;77.67;97725.72;5055445;28;20725;-71
2022/07/25 04:22:37;;;;;;;11.10;10.10;;;;;;;20.79;77.83;97733.34;5055678;28;20297;-71
2022/07/25 04:25:05;;;;;;;11.70;10.53;;;;;;;20.83;78.02;97732.44;5055503;28;20205;-71
2022/07/25 04:27:31;;;;;;;11.90;10.80;;;;;;;20.92;77.26;97733.44;5054984;28;20221;-71
2022/07/25 04:29:58;;;;;;;11.27;10.13;;;;;;;20.92;77.04;97732.63;5055324;28;20308;-71
2022/07/25 04:32:24;;;;;;;11.27;10.00;;;;;;;20.85;77.79;97732.16;5055493;28;20212;-71
2022/07/25 04:34:53;;;;;;;12.10;10.37;;;;;;;20.88;78.45;97728.84;5055155;28;20296;-71
2022/07/25 04:37:20;;;;;;;11.70;10.50;;;;;;;20.98;78.20;97726.06;5054649;28;20212;-71
2022/07/25 04:39:46;;;;;;;11.33;10.23;;;;;;;21.03;78.29;97725.97;5055006;28;20316;-71
2022/07/25 04:42:12;;;;;;;11.50;10.57;;;;;;;21.12;77.49;97724.22;5054950;28;20205;-71
2022/07/25 04:44:39;;;;;;;13.50;10.60;;;;;;;21.18;76.86;97725.75;5054805;28;20213;-70
2022/07/25 04:47:05;;;;;;;11.63;10.43;;;;;;;21.18;76.76;97723.84;5054943;28;20314;-71
2022/07/25 04:49:32;;;;;;;11.10;10.13;;;;;;;21.24;76.08;97736.19;5055034;28;20308;-71
2022/07/25 04:51:58;;;;;;;11.20;10.10;;;;;;;21.32;75.56;97735.53;5055137;28;20305;-72
2022/07/25 04:54:25;;;;;;;11.53;10.43;;;;;;;21.38;74.90;97737.03;5054140;28;20299;-71
2022/07/25 04:56:51;;;;;;;11.60;10.10;;;;;;;21.43;74.76;97728.84;5054982;28;20292;-71
2022/07/25 04:59:17;;;;;;;11.07;9.83;;;;;;;21.51;74.09;97724.63;5054375;28;20247;-71
2022/07/25 05:01:44;;;;;;;13.50;10.63;;;;;;;21.63;72.92;97728.50;5054674;28;20209;-71
2022/07/25 05:04:10;;;;;;;11.43;10.37;;;;;;;21.72;72.43;97720.53;5054105;28;20211;-71
2022/07/25 05:06:36;;;;;;;11.27;10.07;;;;;;;21.93;71.25;97719.06;5054102;28;20313;-71
2022/07/25 05:09:03;;;;;;;11.20;10.10;;;;;;;22.52;68.50;97721.69;5054008;28;20232;-71
2022/07/25 05:11:29;;;;;;;11.63;10.50;;;;;;;23.25;65.19;97727.66;5054533;28;20208;-71
2022/07/25 05:13:56;;;;;;;11.03;10.13;;;;;;;23.80;63.06;97721.63;5053840;28;20701;-71
2022/07/25 05:16:22;;;;;;;11.40;10.05;;;;;;;24.15;60.99;97728.06;5053974;28;20241;-71
2022/07/25 05:18:49;;;;;;;10.73;9.63;;;;;;;24.42;59.79;97723.16;5054003;28;20251;-71
2022/07/25 05:21:15;;;;;;;11.10;10.02;;;;;;;24.38;59.55;97716.75;5053713;28;20300;-71
2022/07/25 05:23:41;;;;;;;10.35;9.25;;;;;;;24.35;60.48;97713.88;5053464;28;20636;-71
2022/07/25 05:26:08;;;;;;;12.02;9.90;;;;;;;24.37;59.77;97722.53;5053391;28;20296;-71
2022/07/25 05:28:35;;;;;;;9.90;9.02;;;;;;;24.10;60.23;97718.09;5053918;28;20316;-71
2022/07/25 05:31:01;;;;;;;10.50;9.57;;;;;;;23.79;61.41;97711.84;5053841;28;20237;-71
2022/07/25 05:33:27;;;;;;;10.32;9.43;;;;;;;23.70;61.12;97718.38;5053844;28;20295;-71
2022/07/25 05:35:54;;;;;;;10.57;9.05;;;;;;;23.71;61.96;97714.53;5053484;28;20227;-71
2022/07/25 05:38:20;;;;;;;10.27;8.73;;;;;;;23.68;63.46;97723.28;5053676;28;20212;-71
2022/07/25 05:40:47;;;;;;;9.68;8.70;;;;;;;23.64;61.86;97714.16;5053798;28;20292;-71
2022/07/25 05:43:13;;;;;;;9.75;8.95;;;;;;;23.66;62.20;97711.97;5053561;28;20305;-71
2022/07/25 05:45:39;;;;;;;10.32;9.32;;;;;;;23.74;62.04;97714.72;5053481;28;20209;-71
2022/07/25 05:48:06;;;;;;;10.48;9.48;;;;;;;23.89;61.63;97705.38;5053648;28;20229;-71
2022/07/25 05:50:32;;;;;;;9.88;9.00;;;;;;;23.92;61.52;97699.34;5053706;28;20205;-71
2022/07/25 05:52:59;;;;;;;9.50;8.63;;;;;;;23.94;62.16;97697.94;5053316;28;20578;-71
2022/07/25 05:55:25;;;;;;;9.82;8.75;;;;;;;24.15;61.13;97698.16;5053477;28;20296;-71
2022/07/25 05:57:52;;;;;;;9.93;8.93;;;;;;;24.12;60.80;97696.88;5053308;28;20536;-71
2022/07/25 06:00:18;;;;;;;11.00;10.00;;;;;;;24.23;59.79;97700.91;5053086;28;20320;-71
2022/07/25 06:02:45;;;;;;;10.60;8.90;;;;;;;24.45;59.94;97689.94;5053445;28;20293;-71
2022/07/25 06:05:11;;;;;;;11.57;9.27;;;;;;;24.44;59.77;97684.81;5053174;28;20624;-71
2022/07/25 06:07:38;;;;;;;10.70;8.65;;;;;;;24.54;59.28;97682.59;5053335;28;20221;-71
2022/07/25 06:10:04;;;;;;;11.10;10.00;;;;;;;24.37;59.80;97679.06;5053446;28;20229;-71
2022/07/25 06:12:32;;;;;;;10.88;9.77;;;;;;;24.48;59.68;97675.72;5053441;28;20295;-71
2022/07/25 06:14:59;;;;;;;11.50;10.40;;;;;;;24.49;59.75;97681.94;5052951;28;20300;-71
2022/07/25 06:17:26;;;;;;;10.52;9.55;;;;;;;24.62;58.89;97675.59;5053250;28;20206;-71
2022/07/25 06:19:52;;;;;;;12.80;10.05;;;;;;;24.58;59.45;97677.31;5052564;28;20251;-71
2022/07/25 06:22:19;;;;;;;14.38;10.55;;;;;;;24.65;59.29;97674.97;5052477;28;20213;-71
2022/07/25 06:24:45;;;;;;;12.20;10.10;;;;;;;24.68;59.51;97675.13;5052718;28;20644;-71
2022/07/25 06:27:12;;;;;;;10.57;9.40;;;;;;;24.89;59.06;97675.31;5053089;28;20220;-71
2022/07/25 06:29:38;;;;;;;11.25;10.05;;;;;;;24.88;59.11;97671.78;5052583;28;20307;-71
2022/07/25 06:32:05;;;;;;;13.75;10.27;;;;;;;24.99;57.58;97674.97;5052789;28;20209;-71
2022/07/25 06:34:31;;;;;;;10.60;9.23;;;;;;;25.01;57.88;97678.19;5052859;28;20201;-71
2022/07/25 06:36:58;;;;;;;10.65;9.55;;;;;;;25.00;57.63;97666.50;5054128;28;20293;-71
2022/07/25 06:39:26;;;;;;;12.93;9.32;;;;;;;25.08;57.27;97671.16;5052211;28;20779;-71
2022/07/25 06:41:53;;;;;;;11.23;9.32;;;;;;;25.14;56.54;97674.50;5052757;28;20263;-71
2022/07/25 06:44:19;;;;;;;11.00;9.90;;;;;;;25.17;56.67;97671.13;5052925;28;20703;-72
2022/07/25 06:46:46;;;;;;;12.77;9.70;;;;;;;25.36;56.95;97672.41;5052635;28;20232;-71
2022/07/25 06:49:12;;;;;;;10.32;9.30;;;;;;;25.25;56.80;97673.06;5052680;28;20229;-71
2022/07/25 06:51:38;;;;;;;10.98;9.40;;;;;;;25.10;56.37;97670.84;5052781;28;20296;-71
2022/07/25 06:54:05;;;;;;;11.88;9.57;;;;;;;25.18;56.73;97673.53;5052712;28;20284;-71
2022/07/25 06:56:31;;;;;;;11.38;10.18;;;;;;;25.12;56.80;97669.38;5052631;28;20236;-71
2022/07/25 06:58:59;;;;;;;10.85;9.75;;;;;;;25.31;57.08;97667.16;5052341;28;20806;-71
2022/07/25 07:01:26;;;;;;;16.23;10.15;;;;;;;25.36;56.66;97666.16;5052864;28;20284;-71
2022/07/25 07:03:52;;;;;;;10.68;9.50;;;;;;;25.48;56.41;97671.75;5052562;28;20668;-69
2022/07/25 07:06:19;;;;;;;13.63;9.75;;;;;;;25.54;56.25;97667.72;5052990;28;20209;-71
2022/07/25 07:08:45;;;;;;;14.93;9.88;;;;;;;25.69;55.88;97665.28;5052363;28;20704;-71
2022/07/25 07:11:14;;;;;;;13.63;9.88;;;;;;;25.88;55.99;97673.84;5052634;28;20204;-71
2022/07/25 07:13:40;;;;;;;11.48;9.70;;;;;;;25.91;55.45;97673.22;5052460;28;20209;-71
2022/07/25 07:16:07;;;;;;;13.65;9.30;;;;;;;26.16;55.54;97668.81;5053265;28;20296;-71
2022/07/25 07:18:33;;;;;;;10.73;9.65;;;;;;;26.35;54.72;97656.38;5055688;28;20221;-72
2022/07/25 07:21:00;;;;;;;13.05;9.68;;;;;;;26.22;54.80;97660.13;5056549;28;20296;-71
2022/07/25 07:23:26;;;;;;;13.45;9.88;;;;;;;26.36;54.48;97655.22;5056157;28;20541;-71
2022/07/25 07:25:52;;;;;;;11.10;10.00;;;;;;;26.41;54.19;97657.75;5056289;28;20291;-71
2022/07/25 07:28:20;;;;;;;11.27;9.55;;;;;;;26.43;54.37;97660.16;5055794;28;20595;-71
2022/07/25 07:30:46;;;;;;;10.95;9.45;;;;;;;26.75;53.70;97664.94;5055834;28;20293;-71
2022/07/25 07:33:12;;;;;;;11.57;9.00;;;;;;;26.85;52.51;97651.72;5056418;28;20288;-71
2022/07/25 07:35:39;;;;;;;10.10;9.10;;;;;;;27.12;52.34;97655.03;5056362;28;20201;-71
2022/07/25 07:38:06;;;;;;;11.27;9.23;;;;;;;27.27;52.11;97649.78;5056286;28;20216;-71
2022/07/25 07:40:32;;;;;;;11.05;9.48;;;;;;;27.36;52.09;97653.22;5056245;28;20206;-71
2022/07/25 07:43:01;;;;;;;13.07;8.43;;;;;;;27.49;51.05;97648.59;5055860;28;20300;-71
2022/07/25 07:45:27;;;;;;;9.75;8.60;;;;;;;27.66;50.58;97643.72;5056666;28;20224;-71
2022/07/25 07:47:54;;;;;;;11.15;9.38;;;;;;;27.73;50.17;97654.91;5055841;28;20328;-71
2022/07/25 07:50:24;;;;;;;12.10;9.10;;;;;;;27.75;49.96;97629.97;5055957;28;20320;-71
2022/07/25 07:52:51;;;;;;;10.50;9.10;;;;;;;27.80;50.03;97633.31;5055570;28;20221;-71
2022/07/25 07:58:02;;;;;;;12.43;8.88;;;;;;;28.12;49.16;97632.41;5055707;28;20180;-71
2022/07/25 08:00:30;;;;;;;10.35;9.20;;;;;;;28.26;49.05;97634.81;5055282;28;20233;-71
2022/07/25 08:02:58;;;;;;;9.38;8.48;;;;;;;28.37;48.80;97634.00;5056110;28;20213;-71
2022/07/25 08:05:37;;;;;;;10.48;9.20;;;;;;;28.39;48.87;97631.69;5055750;28;20575;-71
2022/07/25 08:08:05;;;;;;;10.52;9.52;;;;;;;28.38;48.87;97627.38;5055733;28;20213;-71
2022/07/25 08:10:33;;;;;;;11.00;8.93;;;;;;;28.49;48.84;97623.06;5055464;28;20682;-71
2022/07/25 08:13:00;;;;;;;9.60;8.63;;;;;;;28.71;48.24;97629.97;5055583;28;20209;-71
2022/07/25 08:15:27;;;;;;;11.90;8.63;;;;;;;28.70;48.09;97631.91;5055526;28;20311;-71
2022/07/25 08:17:54;;;;;;;9.38;8.48;;;;;;;28.83;47.57;97632.66;5055624;28;20323;-71
2022/07/25 08:20:22;;;;;;;10.40;9.40;;;;;;;28.86;46.91;97629.25;5055757;28;20320;-71
2022/07/25 08:22:50;;;;;;;9.48;8.68;;;;;;;28.93;47.54;97632.97;5055662;28;20205;-71
2022/07/25 08:25:19;;;;;;;9.90;8.90;;;;;;;29.27;46.64;97634.34;5055606;28;20300;-71
2022/07/25 08:27:45;;;;;;;9.50;8.70;;;;;;;29.44;45.84;97631.31;5055018;28;20647;-71
2022/07/25 08:30:14;;;;;;;13.32;9.18;;;;;;;29.47;45.90;97630.59;5053999;28;20255;-71
2022/07/25 08:32:53;;;;;;;10.20;8.95;;;;;;;29.29;45.78;97630.13;5055291;28;20213;-72
2022/07/25 08:35:20;;;;;;;8.93;8.20;;;;;;;29.33;46.26;97632.94;5055147;28;20193;-71
2022/07/25 08:37:48;;;;;;;10.32;9.30;;;;;;;29.50;45.44;97632.63;5055352;28;20208;-71
2022/07/25 08:40:17;;;;;;;9.68;8.77;;;;;;;29.60;44.74;97634.88;5054463;28;20225;-71
2022/07/25 08:42:44;;;;;;;9.75;8.95;;;;;;;29.86;45.26;97626.94;5055010;28;20201;-71
2022/07/25 08:45:15;;;;;;;10.30;9.40;;;;;;;30.06;44.41;97634.91;5055121;28;20215;-71
2022/07/25 08:47:41;;;;;;;10.40;9.35;;;;;;;30.22;43.39;97630.25;5054566;28;20703;-71
2022/07/25 08:50:10;;;;;;;9.68;8.68;;;;;;;30.25;42.54;97632.25;5054922;28;20237;-71
2022/07/25 08:52:38;;;;;;;9.45;8.65;;;;;;;30.41;41.76;97633.03;5054688;28;20209;-72
2022/07/25 08:55:08;;;;;;;9.23;8.52;;;;;;;30.40;41.94;97631.44;5054689;28;20300;-72
2022/07/25 08:57:36;;;;;;;9.05;8.07;;;;;;;30.45;41.35;97636.66;5055992;28;20231;-71
2022/07/25 09:00:05;;;;;;;9.23;8.23;;;;;;;30.35;40.11;97631.72;5054502;28;20328;-71
2022/07/25 09:02:32;;;;;;;8.82;8.13;;;;;;;30.08;41.07;97638.09;5054973;28;20216;-71
2022/07/25 09:04:58;;;;;;;9.13;8.35;;;;;;;30.31;40.56;97638.28;5054825;28;20203;-71
2022/07/25 09:07:38;;;;;;;8.95;8.20;;;;;;;30.39;40.10;97640.81;5054458;28;20668;-71
2022/07/25 09:10:25;;;;;;;8.35;7.57;;;;;;;30.46;36.20;97629.19;5054335;28;20315;-71
2022/07/25 09:13:00;;;;;;;8.98;7.65;;;;;;;30.68;36.29;97628.56;5054398;28;20368;-71
2022/07/25 09:15:30;;;;;;;7.43;6.93;;;;;;;30.71;35.65;97627.84;5054393;28;20186;-72
2022/07/25 09:17:58;;;;;;;8.00;7.30;;;;;;;30.49;36.18;97625.75;5054538;28;20213;-71
2022/07/25 09:20:36;;;;;;;7.70;7.07;;;;;;;30.41;36.09;97624.81;5054210;28;20229;-71
2022/07/25 09:23:02;;;;;;;7.93;7.32;;;;;;;30.69;36.46;97616.41;5054567;28;20573;-72
2022/07/25 09:25:29;;;;;;;8.30;7.40;;;;;;;30.84;36.24;97612.84;5054850;28;20707;-71
2022/07/25 09:27:57;;;;;;;8.00;7.40;;;;;;;30.80;35.75;97607.25;5053780;28;20699;-72
2022/07/25 09:30:23;;;;;;;8.15;7.55;;;;;;;31.25;35.24;97612.91;5054051;28;20256;-71
2022/07/25 09:33:00;;;;;;;8.07;7.40;;;;;;;31.52;34.41;97617.34;5053962;28;20760;-71
2022/07/25 09:35:36;;;;;;;7.50;6.88;;;;;;;31.40;34.32;97620.28;5054396;28;20189;-71
2022/07/25 09:38:22;;;;;;;8.32;7.63;;;;;;;31.48;34.67;97618.47;5053111;28;20220;-71
2022/07/25 09:41:00;;;;;;;8.35;7.63;;;;;;;31.57;34.14;97611.53;5053440;28;20197;-71
2022/07/25 09:43:40;;;;;;;7.90;7.22;;;;;;;31.72;34.50;97609.84;5054065;28;20193;-69
2022/07/25 09:46:08;;;;;;;8.52;7.75;;;;;;;31.72;34.70;97616.16;5053521;28;20292;-70
2022/07/25 09:48:35;;;;;;;7.85;7.22;;;;;;;31.63;34.25;97612.06;5053339;28;20755;-70
2022/07/25 09:51:03;;;;;;;8.55;7.85;;;;;;;31.77;35.16;97607.63;5053884;28;20219;-70
2022/07/25 09:53:29;;;;;;;8.70;8.00;;;;;;;32.21;34.48;97608.75;5053732;28;20229;-70
2022/07/25 09:55:56;;;;;;;9.15;8.20;;;;;;;32.40;34.53;97603.16;5053781;28;20297;-70
2022/07/25 09:58:24;;;;;;;9.13;8.23;;;;;;;32.45;35.31;97613.84;5053462;28;20201;-70
2022/07/25 10:00:53;;;;;;;8.35;7.75;;;;;;;32.45;34.08;97608.34;5053631;28;20212;-70
2022/07/25 10:03:49;;;;;;;8.35;7.72;;;;;;;32.66;33.65;97599.59;5051803;28;20691;-70
2022/07/25 10:06:36;;;;;;;9.05;8.25;;;;;;;32.67;34.08;97596.47;5053555;28;20190;-70
2022/07/25 10:09:03;;;;;;;8.63;7.80;;;;;;;32.74;34.15;97602.06;5051929;28;20319;-70
2022/07/25 10:11:30;;;;;;;8.50;7.90;;;;;;;32.53;33.42;97599.03;5053090;28;20212;-70
2022/07/25 10:13:57;;;;;;;8.90;8.10;;;;;;;32.53;33.75;97593.53;5053291;28;20205;-70
2022/07/25 10:16:25;;;;;;;8.27;7.55;;;;;;;32.54;33.60;97584.09;5053328;28;20205;-70
2022/07/25 10:18:54;;;;;;;9.48;8.02;;;;;;;32.45;34.74;97583.59;5053652;28;20605;-70
2022/07/25 10:21:22;;;;;;;8.63;7.75;;;;;;;32.47;33.58;97588.72;5053042;28;20304;-70
2022/07/25 10:24:06;;;;;;;8.82;8.13;;;;;;;32.81;33.01;97582.09;5052656;28;20668;-70
2022/07/25 10:26:35;;;;;;;8.02;7.32;;;;;;;32.70;32.90;97583.91;5052794;28;20200;-69
2022/07/25 10:29:01;;;;;;;8.15;7.47;;;;;;;33.00;32.83;97585.50;5052195;28;20724;-71
2022/07/25 10:31:41;;;;;;;9.40;7.70;;;;;;;33.07;32.69;97571.81;5052864;28;20657;-69
2022/07/25 10:34:10;;;;;;;8.43;7.72;;;;;;;33.22;32.58;97568.06;5052908;28;20679;-69
2022/07/25 10:36:55;;;;;;;8.30;7.50;;;;;;;33.32;32.45;97578.41;5052955;28;20295;-69
2022/07/25 10:39:22;;;;;;;8.93;8.02;;;;;;;33.36;31.91;97568.22;5052819;28;20224;-69
2022/07/25 10:41:57;;;;;;;8.20;7.50;;;;;;;33.28;31.43;97569.28;5052445;28;20274;-69
2022/07/25 10:44:29;;;;;;;8.55;7.85;;;;;;;32.76;32.54;97565.88;5053073;28;20534;-69
2022/07/25 10:47:06;;;;;;;7.15;6.55;;;;;;;32.88;31.91;97560.19;5052939;28;20196;-69
2022/07/25 10:49:37;;;;;;;7.55;6.85;;;;;;;33.38;31.61;97560.34;5052849;28;20264;-69
2022/07/25 10:52:04;;;;;;;8.20;7.43;;;;;;;33.50;31.17;97556.53;5052084;28;20288;-70
2022/07/25 10:54:36;;;;;;;8.43;7.55;;;;;;;33.85;30.36;97554.13;5052809;28;20212;-69
2022/07/25 10:57:04;;;;;;;7.47;6.88;;;;;;;33.55;30.33;97559.75;5052969;28;20236;-70
2022/07/25 10:59:38;;;;;;;9.35;7.13;;;;;;;33.49;29.52;97546.69;5052554;28;20260;-70
2022/07/25 11:02:08;;;;;;;7.35;6.70;;;;;;;33.24;30.33;97549.16;5052432;28;20186;-70
2022/07/25 11:04:35;;;;;;;7.60;7.00;;;;;;;33.23;30.44;97542.06;5052661;28;20295;-70
2022/07/25 11:07:14;;;;;;;7.07;6.57;;;;;;;33.39;30.56;97544.63;5052659;28;20216;-70
2022/07/25 11:09:43;;;;;;;7.65;6.85;;;;;;;33.64;30.12;97540.16;5052709;28;20233;-69
2022/07/25 11:12:13;;;;;;;8.00;7.20;;;;;;;33.77;29.91;97535.13;5052014;28;20688;-70
2022/07/25 11:14:41;;;;;;;7.43;6.82;;;;;;;33.79;30.28;97537.09;5052248;28;20189;-70
2022/07/25 11:17:21;;;;;;;7.05;6.55;;;;;;;33.96;29.89;97529.38;5051175;28;20578;-69
2022/07/25 11:20:16;;;;;;;7.30;6.70;;;;;;;33.90;29.56;97522.66;5052441;28;20253;-70
2022/07/25 11:22:42;;;;;;;7.28;6.55;;;;;;;33.81;29.70;97519.44;5052749;28;20247;-69
2022/07/25 11:25:13;;;;;;;7.50;6.85;;;;;;;34.10;29.98;97523.94;5051837;28;20656;-71
2022/07/25 11:27:40;;;;;;;7.30;6.70;;;;;;;34.00;29.45;97517.19;5052928;28;20236;-70
2022/07/25 11:30:14;;;;;;;7.07;6.40;;;;;;;33.51;29.57;97514.81;5052480;28;20292;-70
2022/07/25 11:32:54;;;;;;;6.80;6.30;;;;;;;32.99;30.22;97512.31;5052550;28;20198;-70
2022/07/25 11:35:27;;;;;;;6.43;5.93;;;;;;;33.01;30.84;97512.72;5052499;28;20185;-70